createdAt,value
2023-01-17T01:17:36.397Z,81.38
2023-01-17T01:59:55.167Z,81.85
2023-01-17T03:11:27.661Z,81.14
2023-01-17T03:21:59.823Z,80.85
2023-01-17T03:28:40.326Z,80.96
2023-01-17T03:35:44.765Z,80.89
2023-01-17T03:42:58.527Z,81.03
2023-01-17T03:45:42.828Z,80.91
2023-01-17T03:48:23.853Z,81.16
2023-01-17T03:51:12.123Z,81.00
2023-01-17T03:53:38.168Z,81.34
2023-01-17T03:56:04.906Z,81.63
2023-01-17T03:58:31.326Z,81.48
2023-01-17T04:01:07.574Z,81.34
2023-01-17T04:07:35.566Z,81.42
2023-01-17T04:10:02.531Z,81.52
2023-01-17T04:12:45.058Z,81.61
2023-01-17T04:15:14.492Z,81.52
2023-01-17T04:17:43.772Z,81.59
2023-01-17T04:20:34.815Z,81.88
2023-01-17T04:23:10.654Z,81.73
2023-01-17T04:26:00.136Z,81.35
2023-01-17T04:28:26.555Z,81.54
2023-01-17T04:44:28.812Z,80.77
2023-01-17T04:46:59.561Z,80.61
2023-01-17T04:49:27.175Z,80.53
2023-01-17T04:56:17.336Z,80.70
2023-01-17T05:06:59.244Z,81.32
2023-01-17T05:21:35.355Z,81.64
2023-01-17T05:24:08.585Z,81.88
2023-01-17T05:27:02.614Z,81.87
2023-01-17T05:31:10.377Z,81.87
2023-01-17T05:41:20.720Z,82.36
2023-01-17T05:43:53.235Z,81.76
2023-01-17T06:07:55.527Z,82.18
2023-01-17T06:11:03.469Z,82.00
2023-01-17T06:13:29.973Z,82.20
2023-01-17T06:33:28.064Z,82.34
2023-01-17T06:40:32.807Z,82.00
2023-01-17T06:47:32.837Z,82.12
2023-01-17T06:50:00.736Z,81.94
2023-01-17T06:56:57.222Z,82.34
2023-01-17T07:08:24.855Z,81.87
2023-01-17T07:19:43.158Z,81.67
2023-01-17T07:22:20.832Z,81.94
2023-01-17T07:24:49.293Z,82.22
2023-01-17T07:27:16.903Z,81.53
2023-01-17T07:29:47.171Z,81.65
2023-01-17T07:33:07.475Z,81.53
2023-01-17T07:35:38.214Z,81.18
2023-01-17T07:38:12.309Z,81.23
2023-01-17T07:40:42.299Z,81.23
2023-01-17T07:43:14.776Z,80.86
2023-01-17T07:45:51.409Z,80.94
2023-01-17T07:48:29.481Z,80.97
2023-01-17T07:51:04.028Z,80.52
2023-01-17T07:53:34.014Z,80.28
2023-01-17T07:56:07.146Z,80.38
2023-01-17T07:58:41.001Z,80.35
2023-01-17T08:01:11.332Z,80.30
2023-01-17T08:03:45.474Z,80.57
2023-01-17T08:06:24.619Z,80.27
2023-01-17T08:09:04.758Z,80.01
2023-01-17T08:11:31.004Z,80.06
2023-01-17T08:18:36.312Z,80.07
2023-01-17T08:25:34.078Z,79.76
2023-01-17T08:28:03.023Z,80.18
2023-01-17T08:30:29.084Z,79.81
2023-01-17T08:40:52.132Z,79.59
2023-01-17T09:08:57.746Z,79.78
2023-01-17T09:16:04.633Z,79.70
2023-01-17T09:18:44.735Z,79.89
2023-01-17T09:35:18.148Z,79.81
2023-01-17T09:37:44.220Z,80.06
2023-01-17T09:40:16.880Z,80.14
2023-01-17T09:42:46.497Z,79.97
2023-01-17T09:45:17.563Z,79.97
2023-01-17T09:47:46.482Z,79.59
2023-01-17T09:50:29.362Z,79.60
2023-01-17T09:53:18.100Z,79.30
2023-01-17T09:56:16.758Z,79.08
2023-01-17T09:59:10.674Z,78.84
2023-01-17T10:02:09.150Z,79.05
2023-01-17T10:05:00.911Z,78.92
2023-01-17T10:07:46.468Z,79.42
2023-01-17T10:10:18.831Z,79.52
2023-01-17T10:13:24.242Z,79.40
2023-01-17T10:16:09.031Z,79.35
2023-01-17T10:19:22.537Z,79.78
2023-01-17T10:27:22.401Z,79.71
2023-01-17T10:30:42.749Z,79.40
2023-01-17T10:33:17.802Z,79.35
2023-01-17T10:35:57.460Z,79.33
2023-01-17T10:38:46.616Z,79.15
2023-01-17T10:41:29.364Z,78.88
2023-01-17T10:44:19.646Z,79.28
2023-01-17T10:47:10.235Z,79.25
2023-01-17T10:49:46.667Z,79.30
2023-01-17T10:52:42.771Z,79.15
2023-01-17T10:55:39.648Z,79.19
2023-01-17T10:58:11.996Z,78.99
2023-01-17T11:00:59.404Z,78.92
2023-01-17T11:03:28.075Z,78.81
2023-01-17T11:06:22.084Z,78.82
2023-01-17T11:08:57.648Z,79.09
2023-01-17T11:11:29.676Z,79.04
2023-01-17T11:14:06.566Z,78.76
2023-01-17T11:16:52.681Z,78.42
2023-01-17T11:27:04.996Z,78.08
2023-01-17T11:29:38.252Z,78.48
2023-01-17T11:32:29.339Z,78.23
2023-01-17T11:35:14.731Z,77.78
2023-01-17T11:38:17.626Z,77.37
2023-01-17T11:40:45.582Z,77.72
2023-01-17T11:43:12.136Z,77.92
2023-01-17T11:45:39.915Z,77.92
2023-01-17T11:48:13.068Z,78.14
2023-01-17T11:50:47.127Z,77.67
2023-01-17T11:53:20.865Z,77.77
2023-01-17T11:55:54.849Z,78.56
2023-01-17T11:58:23.628Z,78.81
2023-01-17T12:01:05.615Z,79.09
2023-01-17T12:03:44.167Z,79.18
2023-01-17T12:06:56.168Z,79.06
2023-01-17T12:09:47.970Z,78.92
2023-01-17T12:12:53.968Z,78.66
2023-01-17T12:15:37.709Z,78.58
2023-01-17T12:18:29.703Z,78.26
2023-01-17T12:21:15.380Z,78.31
2023-01-17T12:24:04.814Z,78.38
2023-01-17T12:26:56.878Z,78.20
2023-01-17T12:29:29.038Z,78.32
2023-01-17T12:32:27.099Z,77.63
2023-01-17T12:35:18.951Z,77.76
2023-01-17T12:38:04.231Z,78.38
2023-01-17T12:40:45.536Z,77.81
2023-01-17T12:43:36.199Z,77.71
2023-01-17T12:46:16.485Z,77.46
2023-01-17T12:48:44.406Z,77.49
2023-01-17T12:51:38.937Z,77.70
2023-01-17T12:54:21.978Z,77.91
2023-01-17T12:57:14.138Z,77.48
2023-01-17T12:59:54.154Z,77.30
2023-01-17T13:02:45.282Z,77.13
2023-01-17T13:05:35.820Z,77.48
2023-01-17T13:08:31.263Z,76.77
2023-01-17T13:11:30.187Z,76.61
2023-01-17T13:13:59.387Z,76.03
2023-01-17T13:16:33.007Z,75.67
2023-01-17T13:19:08.269Z,75.60
2023-01-17T13:21:34.958Z,75.78
2023-01-17T13:24:46.697Z,76.03
2023-01-17T13:27:28.471Z,75.76
2023-01-17T13:30:21.288Z,75.47
2023-01-17T13:33:15.713Z,75.50
2023-01-17T13:35:59.027Z,75.65
2023-01-17T13:38:54.186Z,76.08
2023-01-17T13:41:45.049Z,76.16
2023-01-17T13:44:23.642Z,75.76
2023-01-17T13:47:10.004Z,75.93
2023-01-17T13:49:43.511Z,75.89
2023-01-17T13:52:33.303Z,76.24
2023-01-17T13:55:06.408Z,76.41
2023-01-17T13:57:46.299Z,76.16
2023-01-17T14:04:08.869Z,75.99
2023-01-17T14:06:48.390Z,76.22
2023-01-17T14:09:39.852Z,76.42
2023-01-17T14:12:11.932Z,76.67
2023-01-17T14:14:41.089Z,76.66
2023-01-17T14:17:24.971Z,76.46
2023-01-17T14:20:03.090Z,76.32
2023-01-17T14:22:35.292Z,76.33
2023-01-17T14:25:09.206Z,76.81
2023-01-17T14:31:10.431Z,76.85
2023-01-17T14:33:41.055Z,76.56
2023-01-17T14:36:22.981Z,76.49
2023-01-17T14:38:49.079Z,76.51
2023-01-17T14:41:22.067Z,76.57
2023-01-17T14:44:10.476Z,76.68
2023-01-17T14:46:36.539Z,76.92
2023-01-17T14:49:20.469Z,77.14
2023-01-17T14:52:18.450Z,76.99
2023-01-17T14:54:52.075Z,76.97
2023-01-17T14:57:27.862Z,76.84
2023-01-17T15:00:18.336Z,76.73
2023-01-17T15:02:51.927Z,77.11
2023-01-17T15:05:24.766Z,76.74
2023-01-17T15:07:53.764Z,76.91
2023-01-17T15:10:24.452Z,77.29
2023-01-17T15:12:51.697Z,77.31
2023-01-17T15:15:39.087Z,77.32
2023-01-17T15:18:08.034Z,77.59
2023-01-17T15:20:41.830Z,77.81
2023-01-17T15:23:17.674Z,77.73
2023-01-17T15:25:47.919Z,77.87
2023-01-17T15:28:16.752Z,78.22
2023-01-17T15:31:11.612Z,78.19
2023-01-17T15:34:07.779Z,78.27
2023-01-17T15:36:51.841Z,78.39
2023-01-17T15:39:23.405Z,78.60
2023-01-17T15:41:56.530Z,78.73
2023-01-17T15:44:42.619Z,78.73
2023-01-17T15:47:33.763Z,78.61
2023-01-17T15:50:05.020Z,78.92
2023-01-17T15:52:31.772Z,78.78
2023-01-17T15:55:11.849Z,79.13
2023-01-17T15:57:38.321Z,79.21
2023-01-17T16:00:21.347Z,79.37
2023-01-17T16:02:54.570Z,79.42
2023-01-17T16:05:32.884Z,79.30
2023-01-17T16:08:02.132Z,79.18
2023-01-17T16:10:31.260Z,79.01
2023-01-17T16:12:58.946Z,79.41
2023-01-17T16:15:26.970Z,79.08
2023-01-17T16:17:57.787Z,79.43
2023-01-17T16:20:30.048Z,79.47
2023-01-17T16:22:56.250Z,79.80
2023-01-17T16:25:23.716Z,79.84
2023-01-17T16:27:50.949Z,80.02
2023-01-17T16:30:19.386Z,79.82
2023-01-17T16:32:47.887Z,80.28
2023-01-17T16:35:21.873Z,80.53
2023-01-17T16:37:49.636Z,80.31
2023-01-17T16:40:17.171Z,80.47
2023-01-17T16:42:45.869Z,80.70
2023-01-17T16:45:13.455Z,80.61
2023-01-17T16:47:41.340Z,80.78
2023-01-17T16:50:09.511Z,80.85
2023-01-17T16:52:35.639Z,81.40
2023-01-17T16:55:02.327Z,81.38
2023-01-17T16:57:28.372Z,81.45
2023-01-17T16:59:54.480Z,81.55
2023-01-17T17:02:20.496Z,81.53
2023-01-17T17:04:46.727Z,81.42
2023-01-17T17:07:12.780Z,81.58
2023-01-17T17:09:38.822Z,81.31
2023-01-17T17:12:05.322Z,81.66
2023-01-17T17:14:31.504Z,81.51
2023-01-17T17:16:57.816Z,81.54
2023-01-17T17:19:24.643Z,81.78
2023-01-17T17:21:50.663Z,81.44
2023-01-17T17:24:16.879Z,81.50
2023-01-17T17:26:43.895Z,81.66
2023-01-17T17:29:12.239Z,81.66
2023-01-17T17:31:40.575Z,81.82
2023-01-17T17:34:28.763Z,81.55
2023-01-17T17:36:54.936Z,81.62
2023-01-17T17:39:24.041Z,81.54
2023-01-17T17:41:50.025Z,81.46
2023-01-17T17:44:16.940Z,81.22
2023-01-17T17:46:44.130Z,80.98
2023-01-17T17:49:10.957Z,81.12
2023-01-17T17:51:39.653Z,81.28
2023-01-17T17:54:08.209Z,81.32
2023-01-17T17:56:35.676Z,81.15
2023-01-17T17:59:06.898Z,81.39
2023-01-17T18:01:40.386Z,81.08
2023-01-17T18:08:31.919Z,80.52
2023-01-17T18:11:03.466Z,80.82
2023-01-17T18:13:30.841Z,80.73
2023-01-17T18:16:14.755Z,80.48
2023-01-17T18:18:54.404Z,80.45
2023-01-17T18:21:33.141Z,80.29
2023-01-17T18:24:02.315Z,80.15
2023-01-17T18:26:58.126Z,80.67
2023-01-17T18:29:51.374Z,80.32
2023-01-17T18:32:24.359Z,80.27
2023-01-17T18:34:53.662Z,80.14
2023-01-17T18:37:22.650Z,80.47
2023-01-17T18:39:57.974Z,80.12
2023-01-17T18:42:24.330Z,80.32
2023-01-17T18:44:51.790Z,79.97
2023-01-17T18:47:18.109Z,80.33
2023-01-17T18:49:45.276Z,80.44
2023-01-17T18:52:11.963Z,80.47
2023-01-17T18:54:38.033Z,80.19
2023-01-17T18:57:03.979Z,80.37
2023-01-17T18:59:29.982Z,79.98
2023-01-17T19:01:56.082Z,80.34
2023-01-17T19:04:22.413Z,80.46
2023-01-17T19:06:48.747Z,80.29
2023-01-17T19:09:23.987Z,80.43
2023-01-17T19:11:50.898Z,80.47
2023-01-17T19:14:16.971Z,80.15
2023-01-17T19:16:43.231Z,80.55
2023-01-17T19:19:12.154Z,80.77
2023-01-17T19:21:38.344Z,80.58
2023-01-17T19:24:04.619Z,80.44
2023-01-17T19:26:30.735Z,80.80
2023-01-17T19:29:03.001Z,80.85
2023-01-17T19:31:31.008Z,81.01
2023-01-17T19:33:58.528Z,80.67
2023-01-17T19:36:31.596Z,80.82
2023-01-17T19:39:05.650Z,80.63
2023-01-17T19:41:42.745Z,80.59
2023-01-17T19:44:11.233Z,79.97
2023-01-17T19:46:44.289Z,80.04
2023-01-17T19:49:10.468Z,79.90
2023-01-17T19:51:58.171Z,80.02
2023-01-17T19:54:24.575Z,80.46
2023-01-17T19:56:53.577Z,80.55
2023-01-17T19:59:20.928Z,80.37
2023-01-17T20:01:50.005Z,80.10
2023-01-17T20:04:19.838Z,79.96
2023-01-17T20:06:48.255Z,79.95
2023-01-17T20:09:14.315Z,80.17
2023-01-17T20:11:45.309Z,79.93
2023-01-17T20:14:15.984Z,79.85
2023-01-17T20:16:44.158Z,80.05
2023-01-17T20:19:10.205Z,80.04
2023-01-17T20:21:36.179Z,80.48
2023-01-17T20:24:05.197Z,79.97
2023-01-17T20:26:36.496Z,80.05
2023-01-17T20:32:09.017Z,80.00
2023-01-17T20:34:35.170Z,80.08
2023-01-17T20:37:01.849Z,80.27
2023-01-17T20:39:28.020Z,79.92
2023-01-17T20:41:54.011Z,79.76
2023-01-17T20:44:32.972Z,79.96
2023-01-17T20:47:04.911Z,79.82
2023-01-17T21:02:38.906Z,80.17
2023-01-17T21:09:21.520Z,80.12
2023-01-17T21:20:29.412Z,79.66
2023-01-17T21:22:57.417Z,79.73
2023-01-17T21:25:31.938Z,79.78
2023-01-17T21:27:58.569Z,79.80
2023-01-17T21:38:15.632Z,80.07
2023-01-17T21:44:43.696Z,80.07
2023-01-17T21:47:11.873Z,79.93
2023-01-17T21:49:37.848Z,79.81
2023-01-17T21:52:04.053Z,79.96
2023-01-17T21:54:49.277Z,79.92
2023-01-17T21:57:38.923Z,79.93
2023-01-17T22:00:07.788Z,79.94
2023-01-17T22:02:45.257Z,79.61
2023-01-17T22:05:12.619Z,79.73
2023-01-17T22:07:38.947Z,79.59
2023-01-17T22:10:06.248Z,79.17
2023-01-17T22:12:32.267Z,79.36
2023-01-17T22:14:58.251Z,79.43
2023-01-17T22:17:24.219Z,80.16
2023-01-17T22:19:51.357Z,79.97
2023-01-17T22:22:21.031Z,80.59
2023-01-17T22:24:49.970Z,80.36
2023-01-17T22:27:19.462Z,80.40
2023-01-17T22:29:45.581Z,80.59
2023-01-17T22:32:11.532Z,80.79
2023-01-17T22:34:37.505Z,80.61
2023-01-17T22:37:09.299Z,80.74
2023-01-17T22:39:36.421Z,80.57
2023-01-17T22:42:02.576Z,80.76
2023-01-17T22:44:28.580Z,80.72
2023-01-17T22:46:54.561Z,80.73
2023-01-17T22:49:22.839Z,80.67
2023-01-17T22:51:50.081Z,81.02
2023-01-17T22:54:16.339Z,81.19
2023-01-17T22:56:42.362Z,81.18
2023-01-17T22:59:10.927Z,81.17
2023-01-17T23:01:41.516Z,81.25
2023-01-17T23:04:11.749Z,80.85
2023-01-17T23:06:39.717Z,81.05
2023-01-17T23:09:12.013Z,81.15
2023-01-17T23:11:44.301Z,80.69
2023-01-17T23:14:21.135Z,81.27
2023-01-17T23:17:12.374Z,80.86
2023-01-17T23:19:50.391Z,80.72
2023-01-17T23:22:20.886Z,80.72
2023-01-17T23:24:59.102Z,80.75
2023-01-17T23:27:50.568Z,81.35
2023-01-17T23:30:24.311Z,81.04
2023-01-17T23:32:52.984Z,80.87
2023-01-17T23:35:21.277Z,80.47
2023-01-17T23:38:06.156Z,80.08
2023-01-17T23:40:35.037Z,80.55
2023-01-17T23:43:20.671Z,80.51
2023-01-17T23:45:46.863Z,80.35
2023-01-17T23:48:12.921Z,80.37
2023-01-17T23:50:45.814Z,80.63
2023-01-17T23:53:32.287Z,80.55
2023-01-17T23:56:05.365Z,80.76
2023-01-17T23:58:31.814Z,80.66
